sensor_id;sensor_type;location;lat;lon;timestamp;P1;durP1;ratioP1;P2;durP2;ratioP2
22985;SDS011;11659;51.092;7.080;2022-12-10T00:01:19;20.67;;;11.30;;
22985;SDS011;11659;51.092;7.080;2022-12-10T00:03:46;22.40;;;11.73;;
22985;SDS011;11659;51.092;7.080;2022-12-10T00:06:13;22.57;;;11.37;;
22985;SDS011;11659;51.092;7.080;2022-12-10T00:08:41;19.60;;;10.70;;
22985;SDS011;11659;51.092;7.080;2022-12-10T00:11:09;21.93;;;11.77;;
22985;SDS011;11659;51.092;7.080;2022-12-10T00:13:36;20.70;;;11.93;;
22985;SDS011;11659;51.092;7.080;2022-12-10T00:16:05;19.60;;;11.70;;
22985;SDS011;11659;51.092;7.080;2022-12-10T00:18:33;22.83;;;12.07;;
22985;SDS011;11659;51.092;7.080;2022-12-10T00:21:01;22.23;;;12.17;;
22985;SDS011;11659;51.092;7.080;2022-12-10T00:23:28;24.10;;;11.97;;
22985;SDS011;11659;51.092;7.080;2022-12-10T00:26:02;20.60;;;11.47;;
22985;SDS011;11659;51.092;7.080;2022-12-10T00:28:29;22.80;;;11.77;;
22985;SDS011;11659;51.092;7.080;2022-12-10T00:30:55;19.30;;;11.03;;
22985;SDS011;11659;51.092;7.080;2022-12-10T00:33:20;21.07;;;11.57;;
22985;SDS011;11659;51.092;7.080;2022-12-10T00:35:46;20.93;;;10.67;;
22985;SDS011;11659;51.092;7.080;2022-12-10T00:38:12;20.70;;;11.17;;
22985;SDS011;11659;51.092;7.080;2022-12-10T00:40:38;22.23;;;10.80;;
22985;SDS011;11659;51.092;7.080;2022-12-10T00:43:06;17.00;;;9.37;;
22985;SDS011;11659;51.092;7.080;2022-12-10T00:45:32;20.57;;;11.00;;
22985;SDS011;11659;51.092;7.080;2022-12-10T00:47:58;20.87;;;10.67;;
22985;SDS011;11659;51.092;7.080;2022-12-10T00:50:24;20.00;;;10.03;;
22985;SDS011;11659;51.092;7.080;2022-12-10T00:52:50;20.23;;;10.30;;
22985;SDS011;11659;51.092;7.080;2022-12-10T00:55:17;19.80;;;10.13;;
22985;SDS011;11659;51.092;7.080;2022-12-10T00:57:43;19.07;;;9.50;;
22985;SDS011;11659;51.092;7.080;2022-12-10T01:00:11;20.77;;;10.70;;
22985;SDS011;11659;51.092;7.080;2022-12-10T01:02:38;20.53;;;10.83;;
22985;SDS011;11659;51.092;7.080;2022-12-10T01:05:04;20.77;;;10.77;;
22985;SDS011;11659;51.092;7.080;2022-12-10T01:07:30;21.87;;;11.93;;
22985;SDS011;11659;51.092;7.080;2022-12-10T01:09:57;23.30;;;11.77;;
22985;SDS011;11659;51.092;7.080;2022-12-10T01:12:22;20.10;;;10.70;;
22985;SDS011;11659;51.092;7.080;2022-12-10T01:14:48;23.50;;;11.40;;
22985;SDS011;11659;51.092;7.080;2022-12-10T01:17:17;21.50;;;10.87;;
22985;SDS011;11659;51.092;7.080;2022-12-10T01:19:43;20.17;;;10.57;;
22985;SDS011;11659;51.092;7.080;2022-12-10T01:22:09;21.87;;;10.90;;
22985;SDS011;11659;51.092;7.080;2022-12-10T01:24:35;21.43;;;10.70;;
22985;SDS011;11659;51.092;7.080;2022-12-10T01:27:01;20.90;;;10.60;;
22985;SDS011;11659;51.092;7.080;2022-12-10T01:29:27;22.80;;;11.33;;
22985;SDS011;11659;51.092;7.080;2022-12-10T01:31:54;23.17;;;11.20;;
22985;SDS011;11659;51.092;7.080;2022-12-10T01:34:23;21.37;;;10.97;;
22985;SDS011;11659;51.092;7.080;2022-12-10T01:36:51;24.83;;;11.53;;
22985;SDS011;11659;51.092;7.080;2022-12-10T01:39:19;20.37;;;10.87;;
22985;SDS011;11659;51.092;7.080;2022-12-10T01:41:47;24.07;;;12.20;;
22985;SDS011;11659;51.092;7.080;2022-12-10T01:47:19;22.17;;;10.63;;
22985;SDS011;11659;51.092;7.080;2022-12-10T01:49:48;23.83;;;12.17;;
22985;SDS011;11659;51.092;7.080;2022-12-10T01:52:14;27.57;;;12.30;;
22985;SDS011;11659;51.092;7.080;2022-12-10T01:54:41;19.83;;;11.50;;
22985;SDS011;11659;51.092;7.080;2022-12-10T01:57:09;23.10;;;11.80;;
22985;SDS011;11659;51.092;7.080;2022-12-10T01:59:37;23.30;;;11.43;;
22985;SDS011;11659;51.092;7.080;2022-12-10T02:02:05;24.77;;;12.40;;
22985;SDS011;11659;51.092;7.080;2022-12-10T02:04:39;20.37;;;11.00;;
22985;SDS011;11659;51.092;7.080;2022-12-10T02:07:20;22.80;;;11.63;;
22985;SDS011;11659;51.092;7.080;2022-12-10T02:09:50;21.80;;;11.67;;
22985;SDS011;11659;51.092;7.080;2022-12-10T02:12:23;23.63;;;11.90;;
22985;SDS011;11659;51.092;7.080;2022-12-10T02:14:56;22.00;;;11.57;;
22985;SDS011;11659;51.092;7.080;2022-12-10T02:17:26;23.00;;;11.40;;
22985;SDS011;11659;51.092;7.080;2022-12-10T02:19:58;22.70;;;10.90;;
22985;SDS011;11659;51.092;7.080;2022-12-10T02:22:31;24.30;;;11.47;;
22985;SDS011;11659;51.092;7.080;2022-12-10T02:25:00;22.53;;;11.57;;
22985;SDS011;11659;51.092;7.080;2022-12-10T02:27:35;23.20;;;11.30;;
22985;SDS011;11659;51.092;7.080;2022-12-10T02:30:09;22.30;;;11.33;;
22985;SDS011;11659;51.092;7.080;2022-12-10T02:32:36;24.00;;;11.53;;
22985;SDS011;11659;51.092;7.080;2022-12-10T02:35:09;22.47;;;11.50;;
22985;SDS011;11659;51.092;7.080;2022-12-10T02:37:43;23.17;;;11.70;;
22985;SDS011;11659;51.092;7.080;2022-12-10T02:40:15;23.33;;;11.47;;
22985;SDS011;11659;51.092;7.080;2022-12-10T02:42:48;22.47;;;12.10;;
22985;SDS011;11659;51.092;7.080;2022-12-10T02:45:17;22.90;;;12.37;;
22985;SDS011;11659;51.092;7.080;2022-12-10T02:47:45;24.50;;;11.83;;
22985;SDS011;11659;51.092;7.080;2022-12-10T02:50:14;23.10;;;11.47;;
22985;SDS011;11659;51.092;7.080;2022-12-10T02:52:42;21.57;;;10.73;;
22985;SDS011;11659;51.092;7.080;2022-12-10T02:55:10;21.00;;;11.00;;
22985;SDS011;11659;51.092;7.080;2022-12-10T02:57:36;25.93;;;12.10;;
22985;SDS011;11659;51.092;7.080;2022-12-10T03:00:09;23.80;;;11.87;;
22985;SDS011;11659;51.092;7.080;2022-12-10T03:03:04;22.00;;;10.87;;
22985;SDS011;11659;51.092;7.080;2022-12-10T03:05:44;20.07;;;10.87;;
22985;SDS011;11659;51.092;7.080;2022-12-10T03:08:14;24.07;;;11.87;;
22985;SDS011;11659;51.092;7.080;2022-12-10T03:10:45;21.23;;;10.97;;
22985;SDS011;11659;51.092;7.080;2022-12-10T03:13:17;24.80;;;11.73;;
22985;SDS011;11659;51.092;7.080;2022-12-10T03:15:48;22.00;;;11.57;;
22985;SDS011;11659;51.092;7.080;2022-12-10T03:18:20;21.93;;;11.47;;
22985;SDS011;11659;51.092;7.080;2022-12-10T03:20:49;24.43;;;12.37;;
22985;SDS011;11659;51.092;7.080;2022-12-10T03:23:19;23.67;;;11.43;;
22985;SDS011;11659;51.092;7.080;2022-12-10T03:25:46;24.03;;;12.20;;
22985;SDS011;11659;51.092;7.080;2022-12-10T03:28:13;23.27;;;11.67;;
22985;SDS011;11659;51.092;7.080;2022-12-10T03:30:40;23.20;;;11.77;;
22985;SDS011;11659;51.092;7.080;2022-12-10T03:33:08;26.90;;;12.73;;
22985;SDS011;11659;51.092;7.080;2022-12-10T03:35:36;22.03;;;11.57;;
22985;SDS011;11659;51.092;7.080;2022-12-10T03:38:04;22.10;;;11.53;;
22985;SDS011;11659;51.092;7.080;2022-12-10T03:40:30;26.00;;;12.37;;
22985;SDS011;11659;51.092;7.080;2022-12-10T03:42:56;23.33;;;11.43;;
22985;SDS011;11659;51.092;7.080;2022-12-10T03:45:22;27.33;;;13.30;;
22985;SDS011;11659;51.092;7.080;2022-12-10T03:47:48;26.77;;;12.40;;
22985;SDS011;11659;51.092;7.080;2022-12-10T03:50:14;23.73;;;12.60;;
22985;SDS011;11659;51.092;7.080;2022-12-10T03:52:42;27.87;;;13.77;;
22985;SDS011;11659;51.092;7.080;2022-12-10T03:55:08;25.27;;;12.27;;
22985;SDS011;11659;51.092;7.080;2022-12-10T03:57:34;23.97;;;12.40;;
22985;SDS011;11659;51.092;7.080;2022-12-10T04:00:00;28.87;;;13.77;;
22985;SDS011;11659;51.092;7.080;2022-12-10T04:02:38;25.20;;;12.60;;
22985;SDS011;11659;51.092;7.080;2022-12-10T04:05:04;25.10;;;13.37;;
22985;SDS011;11659;51.092;7.080;2022-12-10T04:07:32;26.37;;;13.90;;
22985;SDS011;11659;51.092;7.080;2022-12-10T04:09:59;27.97;;;12.57;;
22985;SDS011;11659;51.092;7.080;2022-12-10T04:12:26;25.67;;;13.03;;
22985;SDS011;11659;51.092;7.080;2022-12-10T04:14:52;23.23;;;12.03;;
22985;SDS011;11659;51.092;7.080;2022-12-10T04:17:36;26.43;;;13.67;;
22985;SDS011;11659;51.092;7.080;2022-12-10T04:20:03;26.27;;;13.47;;
22985;SDS011;11659;51.092;7.080;2022-12-10T04:22:29;27.13;;;13.77;;
22985;SDS011;11659;51.092;7.080;2022-12-10T04:25:35;22.83;;;12.23;;
22985;SDS011;11659;51.092;7.080;2022-12-10T04:28:19;25.43;;;12.47;;
22985;SDS011;11659;51.092;7.080;2022-12-10T04:30:46;26.60;;;12.93;;
22985;SDS011;11659;51.092;7.080;2022-12-10T04:33:11;27.10;;;13.10;;
22985;SDS011;11659;51.092;7.080;2022-12-10T04:35:37;26.80;;;13.90;;
22985;SDS011;11659;51.092;7.080;2022-12-10T04:38:03;24.90;;;12.63;;
22985;SDS011;11659;51.092;7.080;2022-12-10T04:40:29;26.50;;;13.27;;
22985;SDS011;11659;51.092;7.080;2022-12-10T04:42:57;29.43;;;14.33;;
22985;SDS011;11659;51.092;7.080;2022-12-10T04:45:23;29.40;;;13.80;;
22985;SDS011;11659;51.092;7.080;2022-12-10T04:47:49;30.40;;;14.10;;
22985;SDS011;11659;51.092;7.080;2022-12-10T04:50:15;27.93;;;12.87;;
22985;SDS011;11659;51.092;7.080;2022-12-10T04:52:41;24.57;;;12.73;;
22985;SDS011;11659;51.092;7.080;2022-12-10T04:55:07;25.00;;;12.90;;
22985;SDS011;11659;51.092;7.080;2022-12-10T04:57:33;23.70;;;12.87;;
22985;SDS011;11659;51.092;7.080;2022-12-10T05:00:01;25.57;;;12.97;;
22985;SDS011;11659;51.092;7.080;2022-12-10T05:02:27;24.33;;;13.03;;
22985;SDS011;11659;51.092;7.080;2022-12-10T05:04:53;26.83;;;14.23;;
22985;SDS011;11659;51.092;7.080;2022-12-10T05:07:19;26.90;;;13.73;;
22985;SDS011;11659;51.092;7.080;2022-12-10T05:09:45;25.57;;;13.10;;
22985;SDS011;11659;51.092;7.080;2022-12-10T05:12:11;27.33;;;13.80;;
22985;SDS011;11659;51.092;7.080;2022-12-10T05:14:37;26.43;;;13.00;;
22985;SDS011;11659;51.092;7.080;2022-12-10T05:17:04;29.20;;;14.87;;
22985;SDS011;11659;51.092;7.080;2022-12-10T05:19:30;31.67;;;14.37;;
22985;SDS011;11659;51.092;7.080;2022-12-10T05:21:56;27.13;;;14.90;;
22985;SDS011;11659;51.092;7.080;2022-12-10T05:24:41;27.03;;;13.37;;
22985;SDS011;11659;51.092;7.080;2022-12-10T05:27:07;28.13;;;14.40;;
22985;SDS011;11659;51.092;7.080;2022-12-10T05:29:33;26.30;;;14.20;;
22985;SDS011;11659;51.092;7.080;2022-12-10T05:31:59;28.57;;;14.50;;
22985;SDS011;11659;51.092;7.080;2022-12-10T05:34:26;27.83;;;14.23;;
22985;SDS011;11659;51.092;7.080;2022-12-10T05:36:52;28.53;;;13.70;;
22985;SDS011;11659;51.092;7.080;2022-12-10T05:39:18;26.13;;;13.20;;
22985;SDS011;11659;51.092;7.080;2022-12-10T05:41:44;27.43;;;14.30;;
22985;SDS011;11659;51.092;7.080;2022-12-10T05:44:10;28.83;;;13.97;;
22985;SDS011;11659;51.092;7.080;2022-12-10T05:46:36;28.27;;;13.67;;
22985;SDS011;11659;51.092;7.080;2022-12-10T05:49:03;29.33;;;13.97;;
22985;SDS011;11659;51.092;7.080;2022-12-10T05:51:33;26.83;;;13.70;;
22985;SDS011;11659;51.092;7.080;2022-12-10T05:54:00;25.70;;;14.00;;
22985;SDS011;11659;51.092;7.080;2022-12-10T05:56:28;26.90;;;13.47;;
22985;SDS011;11659;51.092;7.080;2022-12-10T05:58:55;25.83;;;13.73;;
22985;SDS011;11659;51.092;7.080;2022-12-10T06:01:24;28.93;;;14.10;;
22985;SDS011;11659;51.092;7.080;2022-12-10T06:03:52;30.13;;;14.17;;
22985;SDS011;11659;51.092;7.080;2022-12-10T06:06:19;27.87;;;14.40;;
22985;SDS011;11659;51.092;7.080;2022-12-10T06:08:48;27.20;;;13.77;;
22985;SDS011;11659;51.092;7.080;2022-12-10T06:11:14;28.50;;;14.43;;
22985;SDS011;11659;51.092;7.080;2022-12-10T06:13:40;25.03;;;14.30;;
22985;SDS011;11659;51.092;7.080;2022-12-10T06:16:07;26.40;;;13.10;;
22985;SDS011;11659;51.092;7.080;2022-12-10T06:18:35;25.07;;;13.93;;
22985;SDS011;11659;51.092;7.080;2022-12-10T06:21:02;29.43;;;14.57;;
22985;SDS011;11659;51.092;7.080;2022-12-10T06:23:29;30.10;;;15.20;;
22985;SDS011;11659;51.092;7.080;2022-12-10T06:25:57;28.97;;;13.90;;
22985;SDS011;11659;51.092;7.080;2022-12-10T06:28:23;31.57;;;15.77;;
22985;SDS011;11659;51.092;7.080;2022-12-10T06:30:49;26.83;;;14.27;;
22985;SDS011;11659;51.092;7.080;2022-12-10T06:33:15;27.67;;;13.97;;
22985;SDS011;11659;51.092;7.080;2022-12-10T06:35:41;30.00;;;14.80;;
22985;SDS011;11659;51.092;7.080;2022-12-10T06:38:07;26.97;;;14.40;;
22985;SDS011;11659;51.092;7.080;2022-12-10T06:40:33;28.43;;;14.23;;
22985;SDS011;11659;51.092;7.080;2022-12-10T06:43:00;30.27;;;14.53;;
22985;SDS011;11659;51.092;7.080;2022-12-10T06:45:26;30.23;;;14.57;;
22985;SDS011;11659;51.092;7.080;2022-12-10T06:47:52;30.43;;;15.23;;
22985;SDS011;11659;51.092;7.080;2022-12-10T06:50:18;28.97;;;14.87;;
22985;SDS011;11659;51.092;7.080;2022-12-10T06:52:44;28.33;;;15.30;;
22985;SDS011;11659;51.092;7.080;2022-12-10T06:55:10;26.53;;;14.20;;
22985;SDS011;11659;51.092;7.080;2022-12-10T06:57:36;31.87;;;15.47;;
22985;SDS011;11659;51.092;7.080;2022-12-10T07:00:04;29.67;;;15.00;;
22985;SDS011;11659;51.092;7.080;2022-12-10T07:02:31;26.10;;;14.57;;
22985;SDS011;11659;51.092;7.080;2022-12-10T07:04:57;25.60;;;14.40;;
22985;SDS011;11659;51.092;7.080;2022-12-10T07:07:23;27.87;;;14.73;;
22985;SDS011;11659;51.092;7.080;2022-12-10T07:09:49;29.90;;;15.03;;
22985;SDS011;11659;51.092;7.080;2022-12-10T07:12:15;25.47;;;14.33;;
22985;SDS011;11659;51.092;7.080;2022-12-10T07:14:41;24.67;;;13.90;;
22985;SDS011;11659;51.092;7.080;2022-12-10T07:17:09;25.73;;;13.63;;
22985;SDS011;11659;51.092;7.080;2022-12-10T07:19:35;27.87;;;14.87;;
22985;SDS011;11659;51.092;7.080;2022-12-10T07:22:01;28.93;;;14.67;;
22985;SDS011;11659;51.092;7.080;2022-12-10T07:24:27;28.23;;;14.27;;
22985;SDS011;11659;51.092;7.080;2022-12-10T07:26:53;27.50;;;14.70;;
22985;SDS011;11659;51.092;7.080;2022-12-10T07:29:20;28.87;;;14.73;;
22985;SDS011;11659;51.092;7.080;2022-12-10T07:31:46;28.30;;;14.73;;
22985;SDS011;11659;51.092;7.080;2022-12-10T07:34:14;29.40;;;15.17;;
22985;SDS011;11659;51.092;7.080;2022-12-10T07:36:41;31.03;;;15.00;;
22985;SDS011;11659;51.092;7.080;2022-12-10T07:39:07;27.67;;;14.83;;
22985;SDS011;11659;51.092;7.080;2022-12-10T07:41:34;30.23;;;16.13;;
22985;SDS011;11659;51.092;7.080;2022-12-10T07:44:01;31.30;;;16.03;;
22985;SDS011;11659;51.092;7.080;2022-12-10T07:46:28;29.17;;;16.00;;
22985;SDS011;11659;51.092;7.080;2022-12-10T07:48:56;29.33;;;15.23;;
22985;SDS011;11659;51.092;7.080;2022-12-10T07:51:27;28.53;;;15.03;;
22985;SDS011;11659;51.092;7.080;2022-12-10T07:53:53;28.97;;;14.20;;
22985;SDS011;11659;51.092;7.080;2022-12-10T07:56:20;30.53;;;15.67;;
22985;SDS011;11659;51.092;7.080;2022-12-10T07:58:47;29.17;;;14.70;;
22985;SDS011;11659;51.092;7.080;2022-12-10T08:01:14;31.13;;;15.33;;
22985;SDS011;11659;51.092;7.080;2022-12-10T08:03:44;27.87;;;14.60;;
22985;SDS011;11659;51.092;7.080;2022-12-10T08:06:10;27.20;;;13.73;;
22985;SDS011;11659;51.092;7.080;2022-12-10T08:08:41;29.87;;;14.10;;
22985;SDS011;11659;51.092;7.080;2022-12-10T08:11:08;33.13;;;15.43;;
22985;SDS011;11659;51.092;7.080;2022-12-10T08:13:35;30.43;;;15.10;;
22985;SDS011;11659;51.092;7.080;2022-12-10T08:16:02;28.83;;;15.03;;
22985;SDS011;11659;51.092;7.080;2022-12-10T08:18:29;27.77;;;15.00;;
22985;SDS011;11659;51.092;7.080;2022-12-10T08:20:55;32.37;;;16.57;;
22985;SDS011;11659;51.092;7.080;2022-12-10T08:23:21;27.50;;;15.30;;
22985;SDS011;11659;51.092;7.080;2022-12-10T08:25:49;31.30;;;15.73;;
22985;SDS011;11659;51.092;7.080;2022-12-10T08:28:15;30.80;;;16.40;;
22985;SDS011;11659;51.092;7.080;2022-12-10T08:30:44;32.93;;;16.27;;
22985;SDS011;11659;51.092;7.080;2022-12-10T08:33:11;32.50;;;16.57;;
22985;SDS011;11659;51.092;7.080;2022-12-10T08:35:37;30.93;;;16.50;;
22985;SDS011;11659;51.092;7.080;2022-12-10T08:38:03;34.07;;;17.33;;
22985;SDS011;11659;51.092;7.080;2022-12-10T08:40:29;33.60;;;18.07;;
22985;SDS011;11659;51.092;7.080;2022-12-10T08:42:56;36.67;;;19.50;;
22985;SDS011;11659;51.092;7.080;2022-12-10T08:45:22;39.17;;;19.93;;
22985;SDS011;11659;51.092;7.080;2022-12-10T08:47:48;45.97;;;23.00;;
22985;SDS011;11659;51.092;7.080;2022-12-10T08:50:16;132.97;;;50.27;;
22985;SDS011;11659;51.092;7.080;2022-12-10T08:52:42;105.37;;;44.67;;
22985;SDS011;11659;51.092;7.080;2022-12-10T08:55:09;78.17;;;36.03;;
22985;SDS011;11659;51.092;7.080;2022-12-10T08:57:35;68.10;;;30.80;;
22985;SDS011;11659;51.092;7.080;2022-12-10T09:00:03;126.67;;;54.37;;
22985;SDS011;11659;51.092;7.080;2022-12-10T09:02:31;100.33;;;44.50;;
22985;SDS011;11659;51.092;7.080;2022-12-10T09:04:56;58.17;;;30.77;;
22985;SDS011;11659;51.092;7.080;2022-12-10T09:07:22;42.30;;;21.57;;
22985;SDS011;11659;51.092;7.080;2022-12-10T09:09:48;36.07;;;19.10;;
22985;SDS011;11659;51.092;7.080;2022-12-10T09:12:14;34.57;;;17.03;;
22985;SDS011;11659;51.092;7.080;2022-12-10T09:14:40;33.67;;;17.90;;
22985;SDS011;11659;51.092;7.080;2022-12-10T09:17:08;34.17;;;17.73;;
22985;SDS011;11659;51.092;7.080;2022-12-10T09:19:34;33.70;;;17.83;;
22985;SDS011;11659;51.092;7.080;2022-12-10T09:22:00;34.17;;;18.07;;
22985;SDS011;11659;51.092;7.080;2022-12-10T09:24:26;33.07;;;17.27;;
22985;SDS011;11659;51.092;7.080;2022-12-10T09:26:52;34.33;;;18.10;;
22985;SDS011;11659;51.092;7.080;2022-12-10T09:29:18;38.93;;;21.33;;
22985;SDS011;11659;51.092;7.080;2022-12-10T09:31:44;50.73;;;27.67;;
22985;SDS011;11659;51.092;7.080;2022-12-10T09:34:11;60.40;;;31.60;;
22985;SDS011;11659;51.092;7.080;2022-12-10T09:36:37;53.53;;;27.57;;
22985;SDS011;11659;51.092;7.080;2022-12-10T09:39:03;47.70;;;24.47;;
22985;SDS011;11659;51.092;7.080;2022-12-10T09:41:51;39.53;;;21.00;;
22985;SDS011;11659;51.092;7.080;2022-12-10T09:44:30;35.83;;;17.60;;
22985;SDS011;11659;51.092;7.080;2022-12-10T09:47:04;37.07;;;18.50;;
22985;SDS011;11659;51.092;7.080;2022-12-10T09:49:37;38.63;;;18.67;;
22985;SDS011;11659;51.092;7.080;2022-12-10T09:52:11;42.33;;;21.67;;
22985;SDS011;11659;51.092;7.080;2022-12-10T09:54:40;42.97;;;22.53;;
22985;SDS011;11659;51.092;7.080;2022-12-10T09:57:10;39.20;;;21.57;;
22985;SDS011;11659;51.092;7.080;2022-12-10T09:59:46;38.10;;;18.83;;
22985;SDS011;11659;51.092;7.080;2022-12-10T10:02:18;37.23;;;19.40;;
22985;SDS011;11659;51.092;7.080;2022-12-10T10:04:49;36.37;;;18.27;;
22985;SDS011;11659;51.092;7.080;2022-12-10T10:07:17;38.97;;;18.97;;
22985;SDS011;11659;51.092;7.080;2022-12-10T10:09:46;31.63;;;16.53;;
22985;SDS011;11659;51.092;7.080;2022-12-10T10:12:12;36.43;;;17.77;;
22985;SDS011;11659;51.092;7.080;2022-12-10T10:14:39;39.33;;;19.43;;
22985;SDS011;11659;51.092;7.080;2022-12-10T10:17:08;35.17;;;18.60;;
22985;SDS011;11659;51.092;7.080;2022-12-10T10:19:39;35.33;;;17.87;;
22985;SDS011;11659;51.092;7.080;2022-12-10T10:22:09;36.17;;;18.33;;
22985;SDS011;11659;51.092;7.080;2022-12-10T10:24:36;37.13;;;18.30;;
22985;SDS011;11659;51.092;7.080;2022-12-10T10:27:10;37.37;;;18.37;;
22985;SDS011;11659;51.092;7.080;2022-12-10T10:29:38;35.87;;;18.37;;
22985;SDS011;11659;51.092;7.080;2022-12-10T10:32:12;35.70;;;18.63;;
22985;SDS011;11659;51.092;7.080;2022-12-10T10:34:40;35.87;;;18.67;;
22985;SDS011;11659;51.092;7.080;2022-12-10T10:37:12;38.30;;;18.87;;
22985;SDS011;11659;51.092;7.080;2022-12-10T10:39:42;37.23;;;18.93;;
22985;SDS011;11659;51.092;7.080;2022-12-10T10:42:14;43.53;;;22.63;;
22985;SDS011;11659;51.092;7.080;2022-12-10T10:44:51;43.80;;;22.13;;
22985;SDS011;11659;51.092;7.080;2022-12-10T10:47:24;41.60;;;21.37;;
22985;SDS011;11659;51.092;7.080;2022-12-10T10:49:52;41.20;;;20.97;;
22985;SDS011;11659;51.092;7.080;2022-12-10T10:52:21;40.43;;;20.93;;
22985;SDS011;11659;51.092;7.080;2022-12-10T10:54:48;39.63;;;19.33;;
22985;SDS011;11659;51.092;7.080;2022-12-10T10:57:15;39.00;;;19.77;;
22985;SDS011;11659;51.092;7.080;2022-12-10T10:59:48;36.93;;;18.50;;
22985;SDS011;11659;51.092;7.080;2022-12-10T11:02:17;36.53;;;19.00;;
22985;SDS011;11659;51.092;7.080;2022-12-10T11:04:46;39.40;;;20.00;;
22985;SDS011;11659;51.092;7.080;2022-12-10T11:07:16;33.27;;;17.83;;
22985;SDS011;11659;51.092;7.080;2022-12-10T11:09:47;37.30;;;18.53;;
22985;SDS011;11659;51.092;7.080;2022-12-10T11:15:04;33.97;;;17.67;;
22985;SDS011;11659;51.092;7.080;2022-12-10T11:17:54;36.33;;;17.17;;
22985;SDS011;11659;51.092;7.080;2022-12-10T11:20:22;35.63;;;18.73;;
22985;SDS011;11659;51.092;7.080;2022-12-10T11:22:53;36.87;;;18.53;;
22985;SDS011;11659;51.092;7.080;2022-12-10T11:25:23;36.80;;;19.07;;
22985;SDS011;11659;51.092;7.080;2022-12-10T11:28:05;35.30;;;18.17;;
22985;SDS011;11659;51.092;7.080;2022-12-10T11:30:41;35.60;;;17.80;;
22985;SDS011;11659;51.092;7.080;2022-12-10T11:33:17;36.83;;;17.87;;
22985;SDS011;11659;51.092;7.080;2022-12-10T11:35:50;35.90;;;17.67;;
22985;SDS011;11659;51.092;7.080;2022-12-10T11:38:27;32.37;;;15.60;;
22985;SDS011;11659;51.092;7.080;2022-12-10T11:41:00;33.33;;;16.60;;
22985;SDS011;11659;51.092;7.080;2022-12-10T11:43:37;32.87;;;16.63;;
22985;SDS011;11659;51.092;7.080;2022-12-10T11:46:25;33.97;;;17.40;;
22985;SDS011;11659;51.092;7.080;2022-12-10T11:49:06;33.43;;;17.40;;
22985;SDS011;11659;51.092;7.080;2022-12-10T11:51:40;35.07;;;17.37;;
22985;SDS011;11659;51.092;7.080;2022-12-10T11:54:15;39.10;;;18.40;;
22985;SDS011;11659;51.092;7.080;2022-12-10T11:56:54;36.33;;;17.73;;
22985;SDS011;11659;51.092;7.080;2022-12-10T11:59:26;38.90;;;18.63;;
22985;SDS011;11659;51.092;7.080;2022-12-10T12:01:59;34.53;;;17.20;;
22985;SDS011;11659;51.092;7.080;2022-12-10T12:04:44;35.87;;;18.00;;
22985;SDS011;11659;51.092;7.080;2022-12-10T12:07:24;35.93;;;17.87;;
22985;SDS011;11659;51.092;7.080;2022-12-10T12:10:23;28.40;;;15.30;;
22985;SDS011;11659;51.092;7.080;2022-12-10T12:13:02;26.63;;;14.73;;
22985;SDS011;11659;51.092;7.080;2022-12-10T12:15:32;28.93;;;14.97;;
22985;SDS011;11659;51.092;7.080;2022-12-10T12:18:04;25.90;;;13.90;;
22985;SDS011;11659;51.092;7.080;2022-12-10T12:20:37;29.37;;;14.13;;
22985;SDS011;11659;51.092;7.080;2022-12-10T12:23:08;25.97;;;13.67;;
22985;SDS011;11659;51.092;7.080;2022-12-10T12:25:38;25.23;;;13.10;;
22985;SDS011;11659;51.092;7.080;2022-12-10T12:28:11;20.47;;;11.03;;
22985;SDS011;11659;51.092;7.080;2022-12-10T12:30:45;22.10;;;12.37;;
22985;SDS011;11659;51.092;7.080;2022-12-10T12:33:16;22.50;;;12.23;;
22985;SDS011;11659;51.092;7.080;2022-12-10T12:35:49;21.23;;;11.60;;
22985;SDS011;11659;51.092;7.080;2022-12-10T12:38:27;22.27;;;12.07;;
22985;SDS011;11659;51.092;7.080;2022-12-10T12:40:56;24.00;;;12.57;;
22985;SDS011;11659;51.092;7.080;2022-12-10T12:43:32;22.87;;;12.80;;
22985;SDS011;11659;51.092;7.080;2022-12-10T12:46:08;26.53;;;12.37;;
22985;SDS011;11659;51.092;7.080;2022-12-10T12:48:38;24.60;;;13.23;;
22985;SDS011;11659;51.092;7.080;2022-12-10T12:51:12;27.03;;;13.33;;
22985;SDS011;11659;51.092;7.080;2022-12-10T12:53:44;23.73;;;12.63;;
22985;SDS011;11659;51.092;7.080;2022-12-10T12:56:11;24.23;;;12.83;;
22985;SDS011;11659;51.092;7.080;2022-12-10T12:58:48;24.17;;;12.93;;
22985;SDS011;11659;51.092;7.080;2022-12-10T13:01:30;25.13;;;13.70;;
22985;SDS011;11659;51.092;7.080;2022-12-10T13:04:01;23.40;;;13.07;;
22985;SDS011;11659;51.092;7.080;2022-12-10T13:06:29;23.10;;;13.20;;
22985;SDS011;11659;51.092;7.080;2022-12-10T13:08:57;26.07;;;13.30;;
22985;SDS011;11659;51.092;7.080;2022-12-10T13:11:39;23.83;;;12.87;;
22985;SDS011;11659;51.092;7.080;2022-12-10T13:14:16;28.03;;;14.70;;
22985;SDS011;11659;51.092;7.080;2022-12-10T13:17:05;28.40;;;14.37;;
22985;SDS011;11659;51.092;7.080;2022-12-10T13:19:34;29.20;;;13.67;;
22985;SDS011;11659;51.092;7.080;2022-12-10T13:22:08;26.07;;;14.23;;
22985;SDS011;11659;51.092;7.080;2022-12-10T13:24:43;27.50;;;14.33;;
22985;SDS011;11659;51.092;7.080;2022-12-10T13:27:30;29.90;;;15.30;;
22985;SDS011;11659;51.092;7.080;2022-12-10T13:30:01;31.93;;;15.60;;
22985;SDS011;11659;51.092;7.080;2022-12-10T13:32:43;30.67;;;15.80;;
22985;SDS011;11659;51.092;7.080;2022-12-10T13:35:28;30.63;;;15.97;;
22985;SDS011;11659;51.092;7.080;2022-12-10T13:37:56;30.40;;;16.17;;
22985;SDS011;11659;51.092;7.080;2022-12-10T13:40:36;32.50;;;16.40;;
22985;SDS011;11659;51.092;7.080;2022-12-10T13:43:24;30.57;;;15.20;;
22985;SDS011;11659;51.092;7.080;2022-12-10T13:46:22;27.73;;;14.80;;
22985;SDS011;11659;51.092;7.080;2022-12-10T13:48:51;30.70;;;15.73;;
22985;SDS011;11659;51.092;7.080;2022-12-10T13:51:21;34.77;;;17.03;;
22985;SDS011;11659;51.092;7.080;2022-12-10T13:54:08;33.07;;;16.03;;
22985;SDS011;11659;51.092;7.080;2022-12-10T13:56:57;34.93;;;15.97;;
22985;SDS011;11659;51.092;7.080;2022-12-10T13:59:30;30.67;;;16.60;;
22985;SDS011;11659;51.092;7.080;2022-12-10T14:02:10;30.50;;;16.10;;
22985;SDS011;11659;51.092;7.080;2022-12-10T14:08:02;31.73;;;16.20;;
22985;SDS011;11659;51.092;7.080;2022-12-10T14:10:31;32.53;;;16.00;;
22985;SDS011;11659;51.092;7.080;2022-12-10T14:12:59;31.50;;;15.20;;
22985;SDS011;11659;51.092;7.080;2022-12-10T14:15:26;30.63;;;16.20;;
22985;SDS011;11659;51.092;7.080;2022-12-10T14:17:57;34.40;;;17.03;;
22985;SDS011;11659;51.092;7.080;2022-12-10T14:20:25;33.77;;;16.33;;
22985;SDS011;11659;51.092;7.080;2022-12-10T14:22:54;32.80;;;17.93;;
22985;SDS011;11659;51.092;7.080;2022-12-10T14:25:43;31.70;;;16.33;;
22985;SDS011;11659;51.092;7.080;2022-12-10T14:28:11;31.70;;;16.83;;
22985;SDS011;11659;51.092;7.080;2022-12-10T14:30:40;29.20;;;16.63;;
22985;SDS011;11659;51.092;7.080;2022-12-10T14:33:09;32.67;;;16.13;;
22985;SDS011;11659;51.092;7.080;2022-12-10T14:35:41;36.60;;;17.53;;
22985;SDS011;11659;51.092;7.080;2022-12-10T14:38:12;32.27;;;16.83;;
22985;SDS011;11659;51.092;7.080;2022-12-10T14:40:44;32.90;;;17.23;;
22985;SDS011;11659;51.092;7.080;2022-12-10T14:45:50;32.10;;;17.00;;
22985;SDS011;11659;51.092;7.080;2022-12-10T14:48:20;32.33;;;16.73;;